createdAt,value
2018-12-06T00:00:05.423Z,11.80
2018-12-06T00:01:05.412Z,14.10
2018-12-06T00:02:05.404Z,11.50
2018-12-06T00:03:05.387Z,10.90
2018-12-06T00:04:05.384Z,13.70
2018-12-06T00:05:05.372Z,14.00
2018-12-06T00:06:05.355Z,10.70
2018-12-06T00:07:05.345Z,14.50
2018-12-06T00:08:05.332Z,12.10
2018-12-06T00:09:05.326Z,13.30
2018-12-06T00:10:05.315Z,14.40
2018-12-06T00:11:05.311Z,12.80
2018-12-06T00:12:05.307Z,14.50
2018-12-06T00:13:05.283Z,12.70
2018-12-06T00:14:05.273Z,14.80
2018-12-06T00:15:05.255Z,15.00
2018-12-06T00:16:05.253Z,13.90
2018-12-06T00:17:05.238Z,14.10
2018-12-06T00:18:05.234Z,13.50
2018-12-06T00:19:05.230Z,11.30
2018-12-06T00:20:05.209Z,12.60
2018-12-06T00:21:05.193Z,14.40
2018-12-06T00:22:05.185Z,12.80
2018-12-06T00:23:05.174Z,16.00
2018-12-06T00:24:05.164Z,12.30
2018-12-06T00:25:05.158Z,11.80
2018-12-06T00:26:05.150Z,12.70
2018-12-06T00:27:05.133Z,11.60
2018-12-06T00:28:05.126Z,11.00
2018-12-06T00:29:05.120Z,10.10
2018-12-06T00:30:05.102Z,12.10
2018-12-06T00:31:05.094Z,12.90
2018-12-06T00:32:05.086Z,13.10
2018-12-06T00:33:05.072Z,15.90
2018-12-06T00:34:05.058Z,12.70
2018-12-06T00:35:05.053Z,15.90
2018-12-06T00:36:05.049Z,11.00
2018-12-06T00:37:05.026Z,13.70
2018-12-06T00:38:05.022Z,12.70
2018-12-06T00:39:05.010Z,16.20
2018-12-06T00:40:04.995Z,12.10
2018-12-06T00:41:05.006Z,13.90
2018-12-06T00:42:04.979Z,12.60
2018-12-06T00:43:04.965Z,11.60
2018-12-06T00:44:04.956Z,14.00
2018-12-06T00:45:04.944Z,13.10
2018-12-06T00:46:04.934Z,16.60
2018-12-06T00:47:04.925Z,12.30
2018-12-06T00:48:04.913Z,11.60
2018-12-06T00:49:04.907Z,12.50
2018-12-06T00:50:04.895Z,12.60
2018-12-06T00:51:04.883Z,11.50
2018-12-06T00:52:04.870Z,12.10
2018-12-06T00:53:04.862Z,13.40
2018-12-06T00:54:04.852Z,11.90
2018-12-06T00:55:04.839Z,17.00
2018-12-06T00:56:04.829Z,14.50
2018-12-06T00:57:04.818Z,12.00
2018-12-06T00:58:04.807Z,12.30
2018-12-06T00:59:04.793Z,10.30
2018-12-06T01:00:04.790Z,11.90
2018-12-06T01:01:04.781Z,14.10
2018-12-06T01:02:04.765Z,11.40
2018-12-06T01:03:04.758Z,12.60
2018-12-06T01:04:04.744Z,12.20
2018-12-06T01:05:04.739Z,13.50
2018-12-06T01:06:04.722Z,14.10
2018-12-06T01:07:04.714Z,13.80
2018-12-06T01:08:04.701Z,13.80
2018-12-06T01:09:04.698Z,13.90
2018-12-06T01:10:04.679Z,12.80
2018-12-06T01:11:04.670Z,12.50
2018-12-06T01:12:04.657Z,11.10
2018-12-06T01:13:04.653Z,12.20
2018-12-06T01:14:04.637Z,12.50
2018-12-06T01:15:04.621Z,11.90
2018-12-06T01:16:04.618Z,15.00
2018-12-06T01:17:04.607Z,13.20
2018-12-06T01:18:04.591Z,12.60
2018-12-06T01:19:04.591Z,18.50
2018-12-06T01:20:04.577Z,10.60
2018-12-06T01:21:04.562Z,13.50
2018-12-06T01:22:04.554Z,13.80
2018-12-06T01:23:04.543Z,12.70
2018-12-06T01:24:04.534Z,13.90
2018-12-06T01:25:04.520Z,11.80
2018-12-06T01:26:04.507Z,15.20
2018-12-06T01:27:04.497Z,12.40
2018-12-06T01:28:04.487Z,12.80
2018-12-06T01:29:04.483Z,13.00
2018-12-06T01:30:04.465Z,13.30
2018-12-06T01:31:04.454Z,13.10
2018-12-06T01:32:04.446Z,13.30
2018-12-06T01:33:04.431Z,14.00
2018-12-06T01:34:04.425Z,14.60
2018-12-06T01:35:04.410Z,15.20
2018-12-06T01:36:04.402Z,13.10
2018-12-06T01:37:04.387Z,12.50
2018-12-06T01:38:04.381Z,11.50
2018-12-06T01:39:04.388Z,14.40
2018-12-06T01:40:04.357Z,14.90
2018-12-06T01:41:04.356Z,11.20
2018-12-06T01:42:04.341Z,11.80
2018-12-06T01:43:04.329Z,11.90
2018-12-06T01:44:04.315Z,13.10
2018-12-06T01:45:04.307Z,11.70
2018-12-06T01:46:04.300Z,14.30
2018-12-06T01:47:04.284Z,12.10
2018-12-06T01:48:04.275Z,13.10
2018-12-06T01:49:04.265Z,11.00
2018-12-06T01:50:04.260Z,16.20
2018-12-06T01:51:04.243Z,12.70
2018-12-06T01:52:04.231Z,11.70
2018-12-06T01:53:04.222Z,11.10
2018-12-06T01:54:04.211Z,12.70
2018-12-06T01:55:04.204Z,14.30
2018-12-06T01:56:04.194Z,12.90
2018-12-06T01:57:04.181Z,14.00
2018-12-06T01:58:04.170Z,11.50
2018-12-06T01:59:04.158Z,10.90
2018-12-06T02:00:04.146Z,14.20
2018-12-06T02:01:04.136Z,12.30
2018-12-06T02:02:04.131Z,14.00
2018-12-06T02:03:04.114Z,13.70
2018-12-06T02:04:04.103Z,14.20
2018-12-06T02:05:04.098Z,10.70
2018-12-06T02:06:04.084Z,11.60
2018-12-06T02:07:04.070Z,13.60
2018-12-06T02:08:04.068Z,11.90
2018-12-06T02:09:04.048Z,12.70
2018-12-06T02:10:04.043Z,13.70
2018-12-06T02:11:04.031Z,13.80
2018-12-06T02:12:04.017Z,11.60
2018-12-06T02:13:04.015Z,12.50
2018-12-06T02:14:04.003Z,10.60
2018-12-06T02:15:03.988Z,11.10
2018-12-06T02:16:03.980Z,13.60
2018-12-06T02:17:03.967Z,12.10
2018-12-06T02:18:03.956Z,13.20
2018-12-06T02:19:03.947Z,13.00
2018-12-06T02:20:03.936Z,13.10
2018-12-06T02:21:03.932Z,13.70
2018-12-06T02:22:03.921Z,14.30
2018-12-06T02:23:03.906Z,13.10
2018-12-06T02:24:03.892Z,12.60
2018-12-06T02:25:03.883Z,21.10
2018-12-06T02:26:03.877Z,14.50
2018-12-06T02:27:03.867Z,12.50
2018-12-06T02:28:03.851Z,14.40
2018-12-06T02:29:03.841Z,12.60
2018-12-06T02:30:03.828Z,13.30
2018-12-06T02:31:03.822Z,12.40
2018-12-06T02:32:03.808Z,14.40
2018-12-06T02:33:03.797Z,15.90
2018-12-06T02:34:03.788Z,13.00
2018-12-06T02:35:03.780Z,12.00
2018-12-06T02:36:03.768Z,15.90
2018-12-06T02:37:03.754Z,12.80
2018-12-06T02:38:03.742Z,12.30
2018-12-06T02:39:03.734Z,14.00
2018-12-06T02:40:03.725Z,13.10
2018-12-06T02:41:03.712Z,14.60
2018-12-06T02:42:03.703Z,14.20
2018-12-06T02:43:03.693Z,13.40
2018-12-06T02:44:03.680Z,11.10
2018-12-06T02:45:03.679Z,12.60
2018-12-06T02:46:03.660Z,11.40
2018-12-06T02:47:03.652Z,12.70
2018-12-06T02:48:03.635Z,11.70
2018-12-06T02:49:03.626Z,12.80
2018-12-06T02:50:03.618Z,11.10
2018-12-06T02:51:03.610Z,13.20
2018-12-06T02:52:03.594Z,11.20
2018-12-06T02:53:03.599Z,11.70
2018-12-06T02:54:03.570Z,12.90
2018-12-06T02:55:03.566Z,10.30
2018-12-06T02:56:03.555Z,13.40
2018-12-06T02:57:03.536Z,12.80
2018-12-06T02:58:03.528Z,12.70
2018-12-06T02:59:03.516Z,11.70
2018-12-06T03:00:03.512Z,11.00
2018-12-06T03:01:03.511Z,11.00
2018-12-06T03:02:03.487Z,12.00
2018-12-06T03:03:03.478Z,13.60
2018-12-06T03:04:03.464Z,12.20
2018-12-06T03:05:03.452Z,13.40
2018-12-06T03:06:03.446Z,13.20
2018-12-06T03:07:03.430Z,9.00
2018-12-06T03:08:03.429Z,13.20
2018-12-06T03:09:03.414Z,13.30
2018-12-06T03:10:03.404Z,12.20
2018-12-06T03:11:03.387Z,11.00
2018-12-06T03:12:03.380Z,12.10
2018-12-06T03:13:03.366Z,11.60
2018-12-06T03:14:03.366Z,13.70
2018-12-06T03:15:03.349Z,13.10
2018-12-06T03:16:03.341Z,11.70
2018-12-06T03:17:03.332Z,11.80
2018-12-06T03:18:03.323Z,11.00
2018-12-06T03:19:03.312Z,12.60
2018-12-06T03:20:03.297Z,12.40
2018-12-06T03:21:03.309Z,13.30
2018-12-06T03:22:03.277Z,12.30
2018-12-06T03:23:03.260Z,11.70
2018-12-06T03:24:03.257Z,13.00
2018-12-06T03:25:03.246Z,12.90
2018-12-06T03:26:03.231Z,11.30
2018-12-06T03:27:03.230Z,10.60
2018-12-06T03:28:03.217Z,12.20
2018-12-06T03:29:03.204Z,11.00
2018-12-06T03:30:03.199Z,11.90
2018-12-06T03:31:03.182Z,12.30
2018-12-06T03:32:03.176Z,12.80
2018-12-06T03:33:03.166Z,11.80
2018-12-06T03:34:03.148Z,12.30
2018-12-06T03:35:03.143Z,12.10
2018-12-06T03:36:03.133Z,11.80
2018-12-06T03:37:03.133Z,10.20
2018-12-06T03:38:03.113Z,12.80
2018-12-06T03:39:03.101Z,12.90
2018-12-06T03:40:03.087Z,12.20
2018-12-06T03:41:03.075Z,9.70
2018-12-06T03:42:03.068Z,12.00
2018-12-06T03:43:03.062Z,12.00
2018-12-06T03:44:03.052Z,13.60
2018-12-06T03:45:03.043Z,11.50
2018-12-06T03:46:03.024Z,15.10
2018-12-06T03:47:03.015Z,11.00
2018-12-06T03:48:03.083Z,11.30
2018-12-06T03:49:02.998Z,12.90
2018-12-06T03:50:03.000Z,13.30
2018-12-06T03:51:02.969Z,9.90
2018-12-06T03:52:02.961Z,10.70
2018-12-06T03:53:02.954Z,11.00
2018-12-06T03:54:02.946Z,12.30
2018-12-06T03:55:02.941Z,11.00
2018-12-06T03:56:02.925Z,9.60
2018-12-06T03:57:02.913Z,9.30
2018-12-06T03:58:03.016Z,11.10
2018-12-06T03:59:02.889Z,10.20
2018-12-06T04:00:02.892Z,11.70
2018-12-06T04:01:02.869Z,10.00
2018-12-06T04:02:02.871Z,12.30
2018-12-06T04:03:02.846Z,9.30
2018-12-06T04:04:02.837Z,11.00
2018-12-06T04:05:02.826Z,11.20
2018-12-06T04:06:02.818Z,8.30
2018-12-06T04:07:02.807Z,11.60
2018-12-06T04:08:02.800Z,10.50
2018-12-06T04:09:02.782Z,11.50
2018-12-06T04:10:02.776Z,9.80
2018-12-06T04:11:02.761Z,11.10
2018-12-06T04:12:02.745Z,10.80
2018-12-06T04:13:02.743Z,11.50
2018-12-06T04:14:02.725Z,10.50
2018-12-06T04:15:02.716Z,10.30
2018-12-06T04:16:02.707Z,9.90
2018-12-06T04:17:02.695Z,11.20
2018-12-06T04:18:02.680Z,9.90
2018-12-06T04:19:02.673Z,9.90
2018-12-06T04:20:02.705Z,9.20
2018-12-06T04:21:02.654Z,11.90
2018-12-06T04:22:02.644Z,11.30
2018-12-06T04:23:02.642Z,10.90
2018-12-06T04:24:02.618Z,10.20
2018-12-06T04:25:02.617Z,8.80
2018-12-06T04:26:02.598Z,9.50
2018-12-06T04:27:02.594Z,10.50
2018-12-06T04:28:02.579Z,9.80
2018-12-06T04:29:02.574Z,9.10
2018-12-06T04:30:02.555Z,10.30
2018-12-06T04:31:02.546Z,9.80
2018-12-06T04:32:02.533Z,10.90
2018-12-06T04:33:02.550Z,10.00
2018-12-06T04:34:02.512Z,9.90
2018-12-06T04:35:02.512Z,9.90
2018-12-06T04:36:02.492Z,9.40
2018-12-06T04:37:02.607Z,9.40
2018-12-06T04:38:02.476Z,9.50
2018-12-06T04:39:02.464Z,8.90
2018-12-06T04:40:02.450Z,10.90
2018-12-06T04:41:02.441Z,8.50
2018-12-06T04:42:02.428Z,8.80
2018-12-06T04:43:02.419Z,9.80
2018-12-06T04:44:02.411Z,8.80
2018-12-06T04:45:02.398Z,8.80
2018-12-06T04:46:02.390Z,10.30
2018-12-06T04:47:02.377Z,8.90
2018-12-06T04:48:02.368Z,8.80
2018-12-06T04:49:02.352Z,8.10
2018-12-06T04:50:02.345Z,10.50
2018-12-06T04:51:02.373Z,10.70
2018-12-06T04:52:02.322Z,8.10
2018-12-06T04:53:02.312Z,10.60
2018-12-06T04:54:02.309Z,8.60
2018-12-06T04:55:02.301Z,10.20
2018-12-06T04:56:02.280Z,8.10
2018-12-06T04:57:02.273Z,9.30
2018-12-06T04:58:02.259Z,11.40
2018-12-06T04:59:02.253Z,9.70
2018-12-06T05:00:02.240Z,10.10
2018-12-06T05:01:02.224Z,10.00
2018-12-06T05:02:02.220Z,12.00
2018-12-06T05:03:02.200Z,10.40
2018-12-06T05:04:02.198Z,8.40
2018-12-06T05:05:02.187Z,9.10
2018-12-06T05:06:02.174Z,9.80
2018-12-06T05:07:02.165Z,8.50
2018-12-06T05:08:02.146Z,9.10
2018-12-06T05:09:02.148Z,9.70
2018-12-06T05:10:02.129Z,8.30
2018-12-06T05:11:02.121Z,9.30
2018-12-06T05:12:02.108Z,9.00
2018-12-06T05:13:02.142Z,7.90
2018-12-06T05:14:02.082Z,10.50
2018-12-06T05:15:02.074Z,7.20
2018-12-06T05:16:02.064Z,9.40
2018-12-06T05:17:02.052Z,10.10
2018-12-06T05:18:02.047Z,9.90
2018-12-06T05:19:02.032Z,8.10
2018-12-06T05:20:02.022Z,9.20
2018-12-06T05:21:02.061Z,8.60
2018-12-06T05:22:02.001Z,10.30
2018-12-06T05:23:01.990Z,9.70
2018-12-06T05:24:01.985Z,8.70
2018-12-06T05:25:01.971Z,9.10
2018-12-06T05:26:01.959Z,8.40
2018-12-06T05:27:01.951Z,9.30
2018-12-06T05:28:01.942Z,7.90
2018-12-06T05:29:01.925Z,8.90
2018-12-06T05:30:01.914Z,8.40
2018-12-06T05:31:01.906Z,9.60
2018-12-06T05:32:01.892Z,7.10
2018-12-06T05:33:01.878Z,8.00
2018-12-06T05:34:01.874Z,9.30
2018-12-06T05:35:01.864Z,8.30
2018-12-06T05:36:01.848Z,8.10
2018-12-06T05:37:01.840Z,10.10
2018-12-06T05:38:01.831Z,7.70
2018-12-06T05:39:01.816Z,8.70
2018-12-06T05:40:01.905Z,11.70
2018-12-06T05:41:01.794Z,9.20
2018-12-06T05:42:01.785Z,10.20
2018-12-06T05:43:01.775Z,8.40
2018-12-06T05:44:01.761Z,8.10
2018-12-06T05:45:01.758Z,8.00
2018-12-06T05:46:01.747Z,8.50
2018-12-06T05:47:01.730Z,10.00
2018-12-06T05:48:01.719Z,8.60
2018-12-06T05:49:01.705Z,9.70
2018-12-06T05:50:01.701Z,9.10
2018-12-06T05:51:01.692Z,7.50
2018-12-06T05:52:01.677Z,9.20
2018-12-06T05:53:01.672Z,7.70
2018-12-06T05:54:01.658Z,8.20
2018-12-06T05:55:01.655Z,8.50
2018-12-06T05:56:01.641Z,8.20
2018-12-06T05:57:01.621Z,7.60
2018-12-06T05:58:01.618Z,9.40
2018-12-06T05:59:01.609Z,7.10
2018-12-06T06:00:01.597Z,7.80
2018-12-06T06:01:01.585Z,6.80
2018-12-06T06:02:01.577Z,8.50
2018-12-06T06:03:01.569Z,8.10
2018-12-06T06:04:01.561Z,7.60
2018-12-06T06:05:01.539Z,7.60
2018-12-06T06:06:01.538Z,8.70
2018-12-06T06:07:01.524Z,9.30
2018-12-06T06:08:01.509Z,9.10
2018-12-06T06:09:01.591Z,8.40
2018-12-06T06:10:01.488Z,9.20
2018-12-06T06:11:01.481Z,7.70
2018-12-06T06:12:01.467Z,8.60
2018-12-06T06:13:01.455Z,9.50
2018-12-06T06:14:01.445Z,9.10
2018-12-06T06:15:01.497Z,8.50
2018-12-06T06:16:01.425Z,8.10
2018-12-06T06:17:01.415Z,10.40
2018-12-06T06:18:01.408Z,8.60
2018-12-06T06:19:01.395Z,9.00
2018-12-06T06:20:01.383Z,8.70
2018-12-06T06:21:01.373Z,7.00
2018-12-06T06:22:01.371Z,8.90
2018-12-06T06:23:01.351Z,8.70
2018-12-06T06:24:01.346Z,10.30
2018-12-06T06:25:01.336Z,8.50
2018-12-06T06:26:01.325Z,7.90
2018-12-06T06:27:01.309Z,8.60
2018-12-06T06:28:01.305Z,7.80
2018-12-06T06:29:01.291Z,7.90
2018-12-06T06:30:01.282Z,7.90
2018-12-06T06:31:01.351Z,9.80
2018-12-06T06:32:01.255Z,8.10
2018-12-06T06:33:01.241Z,8.30
2018-12-06T06:34:01.237Z,9.50
2018-12-06T06:35:01.225Z,8.00
2018-12-06T06:36:01.221Z,8.70
2018-12-06T06:37:01.205Z,7.90
2018-12-06T06:38:01.191Z,8.10
2018-12-06T06:39:01.183Z,8.70
2018-12-06T06:40:01.173Z,9.70
2018-12-06T06:41:01.158Z,9.50
2018-12-06T06:42:01.151Z,9.60
2018-12-06T06:43:01.139Z,9.20
2018-12-06T06:44:01.134Z,7.70
2018-12-06T06:45:01.118Z,8.40
2018-12-06T06:46:01.107Z,7.80
2018-12-06T06:47:01.100Z,9.30
2018-12-06T06:48:01.085Z,9.00
2018-12-06T06:49:01.084Z,9.00
2018-12-06T06:50:01.075Z,8.90
2018-12-06T06:51:01.055Z,8.50
2018-12-06T06:52:01.050Z,9.90
2018-12-06T06:53:01.038Z,9.50
2018-12-06T06:54:01.021Z,8.70
2018-12-06T06:55:01.014Z,10.20
2018-12-06T06:56:01.009Z,8.90
2018-12-06T06:57:00.995Z,7.30
2018-12-06T06:58:00.981Z,7.20
2018-12-06T06:59:00.969Z,9.90
2018-12-06T07:00:00.966Z,9.40
2018-12-06T07:01:00.947Z,8.90
2018-12-06T07:02:00.938Z,8.20
2018-12-06T07:03:00.928Z,7.40
2018-12-06T07:04:00.917Z,7.00
2018-12-06T07:05:00.911Z,6.90
2018-12-06T07:06:00.895Z,7.40
2018-12-06T07:07:00.895Z,8.00
2018-12-06T07:08:00.874Z,7.30
2018-12-06T07:09:00.871Z,8.20
2018-12-06T07:10:00.859Z,8.60
2018-12-06T07:11:00.921Z,8.20
2018-12-06T07:12:00.833Z,8.50
2018-12-06T07:13:00.826Z,8.20
2018-12-06T07:14:00.814Z,9.60
2018-12-06T07:15:00.799Z,9.90
2018-12-06T07:16:00.789Z,6.80
2018-12-06T07:17:00.787Z,8.10
2018-12-06T07:18:00.777Z,7.80
2018-12-06T07:19:00.770Z,7.80
2018-12-06T07:20:00.762Z,8.60
2018-12-06T07:21:00.743Z,8.30
2018-12-06T07:22:00.729Z,9.50
2018-12-06T07:23:01.042Z,7.80
2018-12-06T07:24:00.713Z,7.40
2018-12-06T07:25:00.701Z,9.00
2018-12-06T07:26:00.688Z,8.60
2018-12-06T07:27:00.676Z,8.40
2018-12-06T07:28:00.669Z,9.00
2018-12-06T07:29:00.655Z,8.00
2018-12-06T07:30:00.644Z,8.10
2018-12-06T07:31:00.638Z,8.50
2018-12-06T07:32:00.624Z,8.00
2018-12-06T07:33:00.611Z,9.10
2018-12-06T07:34:00.599Z,8.00
2018-12-06T07:35:00.595Z,8.40
2018-12-06T07:36:00.581Z,7.80
2018-12-06T07:37:00.571Z,9.00
2018-12-06T07:38:00.560Z,7.90
2018-12-06T07:39:00.549Z,9.40
2018-12-06T07:40:00.541Z,8.30
2018-12-06T07:41:00.531Z,11.40
2018-12-06T07:42:00.519Z,10.00
2018-12-06T07:43:00.508Z,7.90
2018-12-06T07:44:00.499Z,7.90
2018-12-06T07:45:00.499Z,8.30
2018-12-06T07:46:00.478Z,7.80
2018-12-06T07:47:00.465Z,7.40
2018-12-06T07:48:00.459Z,7.20
2018-12-06T07:49:00.450Z,8.10
2018-12-06T07:50:00.434Z,9.70
2018-12-06T07:51:00.434Z,8.10
2018-12-06T07:52:00.423Z,8.30
2018-12-06T07:53:00.399Z,8.90
2018-12-06T07:54:00.391Z,9.60
2018-12-06T07:55:00.383Z,7.50
2018-12-06T07:56:00.367Z,8.90
2018-12-06T07:57:00.357Z,8.10
2018-12-06T07:58:00.349Z,8.20
2018-12-06T07:59:00.339Z,9.50
2018-12-06T08:00:00.330Z,8.10
2018-12-06T08:01:00.319Z,9.10
2018-12-06T08:02:00.301Z,8.10
2018-12-06T08:03:00.297Z,8.50
2018-12-06T08:04:00.283Z,10.30
2018-12-06T08:05:00.275Z,8.10
2018-12-06T08:06:00.269Z,6.70
2018-12-06T08:07:00.255Z,8.80
2018-12-06T08:08:00.239Z,8.50
2018-12-06T08:09:00.227Z,6.90
2018-12-06T08:10:00.215Z,9.10
2018-12-06T08:11:00.213Z,8.30
2018-12-06T08:12:00.208Z,8.10
2018-12-06T08:13:00.189Z,7.00
2018-12-06T08:14:00.184Z,8.30
2018-12-06T08:15:00.173Z,8.10
2018-12-06T08:16:00.186Z,9.80
2018-12-06T08:17:00.153Z,8.30
2018-12-06T08:18:00.135Z,7.40
2018-12-06T08:19:00.129Z,9.30
2018-12-06T08:20:00.114Z,8.50
2018-12-06T08:21:00.099Z,7.60
2018-12-06T08:22:00.101Z,8.30
2018-12-06T08:23:00.081Z,8.40
2018-12-06T08:24:00.073Z,9.20
2018-12-06T08:25:00.059Z,8.70
2018-12-06T08:26:00.048Z,8.10
2018-12-06T08:27:00.041Z,10.00
2018-12-06T08:28:00.028Z,8.70
2018-12-06T08:29:00.018Z,7.20
2018-12-06T08:30:00.009Z,6.50
2018-12-06T08:30:59.994Z,7.00
2018-12-06T08:31:59.989Z,7.90
2018-12-06T08:32:59.979Z,8.70
2018-12-06T08:34:06.146Z,8.30
2018-12-06T08:35:00.950Z,6.70
2018-12-06T08:35:59.948Z,7.50
2018-12-06T08:36:59.934Z,7.40
2018-12-06T08:37:59.921Z,8.70
2018-12-06T08:38:59.915Z,6.70
2018-12-06T08:40:00.121Z,7.00
2018-12-06T08:40:59.883Z,8.00
2018-12-06T08:41:59.879Z,6.20
2018-12-06T08:42:59.873Z,6.90
2018-12-06T08:43:59.859Z,7.60
2018-12-06T08:44:59.847Z,7.70
2018-12-06T08:45:59.835Z,8.00
2018-12-06T08:46:59.825Z,7.50
2018-12-06T08:47:59.815Z,5.90
2018-12-06T08:49:02.985Z,6.80
2018-12-06T08:49:59.797Z,6.90
2018-12-06T08:50:59.785Z,7.60
2018-12-06T08:51:59.770Z,7.10
2018-12-06T08:52:59.759Z,7.10
2018-12-06T08:53:59.749Z,8.20
2018-12-06T08:54:59.747Z,7.50
2018-12-06T08:55:59.733Z,7.60
2018-12-06T08:56:59.717Z,7.60
2018-12-06T08:57:59.705Z,5.50
2018-12-06T08:58:59.697Z,6.70
2018-12-06T08:59:59.693Z,7.50
2018-12-06T09:00:59.673Z,8.60
2018-12-06T09:01:59.661Z,7.20
2018-12-06T09:02:59.647Z,7.40
2018-12-06T09:03:59.647Z,6.50
2018-12-06T09:04:59.643Z,7.90
2018-12-06T09:05:59.628Z,6.80
2018-12-06T09:06:59.609Z,6.70
2018-12-06T09:07:59.599Z,8.00
2018-12-06T09:08:59.587Z,6.70
2018-12-06T09:09:59.579Z,7.40
2018-12-06T09:10:59.571Z,5.40
2018-12-06T09:11:59.559Z,6.40
2018-12-06T09:12:59.545Z,7.70
2018-12-06T09:13:59.538Z,6.80
2018-12-06T09:14:59.523Z,6.70
2018-12-06T09:15:59.517Z,5.80
2018-12-06T09:16:59.501Z,5.80
2018-12-06T09:17:59.493Z,5.60
2018-12-06T09:18:59.477Z,5.60
2018-12-06T09:19:59.469Z,7.10
2018-12-06T09:20:59.460Z,5.90
2018-12-06T09:21:59.445Z,5.50
2018-12-06T09:22:59.437Z,8.20
2018-12-06T09:23:59.425Z,5.40
2018-12-06T09:24:59.417Z,6.60
2018-12-06T09:25:59.402Z,6.30
2018-12-06T09:26:59.393Z,6.20
2018-12-06T09:27:59.381Z,6.80
2018-12-06T09:28:59.369Z,6.90
2018-12-06T09:29:59.373Z,6.70
2018-12-06T09:31:01.183Z,6.30
2018-12-06T09:31:59.338Z,6.10
2018-12-06T09:32:59.335Z,5.60
2018-12-06T09:33:59.318Z,6.70
2018-12-06T09:34:59.306Z,6.90
2018-12-06T09:35:59.293Z,6.60
2018-12-06T09:36:59.286Z,7.00
2018-12-06T09:37:59.278Z,6.90
2018-12-06T09:38:59.263Z,6.30
2018-12-06T09:39:59.253Z,5.10
2018-12-06T09:40:59.239Z,6.70
2018-12-06T09:41:59.234Z,6.40
2018-12-06T09:42:59.225Z,6.20
2018-12-06T09:43:59.214Z,6.60
2018-12-06T09:44:59.199Z,6.50
2018-12-06T09:45:59.191Z,8.70
2018-12-06T09:46:59.209Z,7.00
2018-12-06T09:47:59.171Z,6.60
2018-12-06T09:48:59.153Z,7.30
2018-12-06T09:49:59.145Z,7.40
2018-12-06T09:50:59.237Z,6.30
2018-12-06T09:51:59.119Z,6.50
2018-12-06T09:52:59.113Z,6.50
2018-12-06T09:53:59.103Z,7.60
2018-12-06T09:54:59.096Z,9.00
2018-12-06T09:55:59.087Z,5.80
2018-12-06T09:56:59.074Z,5.70
2018-12-06T09:57:59.069Z,5.90
2018-12-06T09:58:59.049Z,6.90
2018-12-06T09:59:59.042Z,6.30
2018-12-06T10:00:59.039Z,7.70
2018-12-06T10:01:59.022Z,6.60
2018-12-06T10:02:59.008Z,7.10
2018-12-06T10:03:59.000Z,6.00
2018-12-06T10:04:58.989Z,7.10
2018-12-06T10:05:58.974Z,5.30
2018-12-06T10:06:58.964Z,6.90
2018-12-06T10:07:58.952Z,5.60
2018-12-06T10:08:58.940Z,7.70
2018-12-06T10:09:58.928Z,7.40
2018-12-06T10:10:58.916Z,6.30
2018-12-06T10:11:58.910Z,5.70
2018-12-06T10:12:58.899Z,6.10
2018-12-06T10:13:58.893Z,7.00
2018-12-06T10:14:58.885Z,5.50
2018-12-06T10:15:58.865Z,7.00
2018-12-06T10:16:58.860Z,7.50
2018-12-06T10:17:58.844Z,7.00
2018-12-06T10:18:58.834Z,6.10
2018-12-06T10:19:58.821Z,6.70
2018-12-06T10:20:58.812Z,6.00
2018-12-06T10:21:58.801Z,7.20
2018-12-06T10:22:58.795Z,6.00
2018-12-06T10:23:58.777Z,7.70
2018-12-06T10:24:58.774Z,6.50
2018-12-06T10:25:58.758Z,5.70
2018-12-06T10:26:58.746Z,7.60
2018-12-06T10:27:58.737Z,6.40
2018-12-06T10:28:58.727Z,5.90
2018-12-06T10:29:58.715Z,7.70
2018-12-06T10:30:58.702Z,5.90
2018-12-06T10:31:58.693Z,7.20
2018-12-06T10:32:58.681Z,6.00
2018-12-06T10:33:58.669Z,6.20
2018-12-06T10:34:58.665Z,6.00
2018-12-06T10:35:58.649Z,7.00
2018-12-06T10:36:58.640Z,7.20
2018-12-06T10:37:58.631Z,6.20
2018-12-06T10:38:58.623Z,5.80
2018-12-06T10:39:58.618Z,6.40
2018-12-06T10:40:58.594Z,6.30
2018-12-06T10:41:58.584Z,6.40
2018-12-06T10:42:58.576Z,5.90
2018-12-06T10:43:58.563Z,6.90
2018-12-06T10:44:58.555Z,6.30
2018-12-06T10:45:58.544Z,7.00
2018-12-06T10:46:58.532Z,7.70
2018-12-06T10:47:58.520Z,7.10
2018-12-06T10:48:58.516Z,6.80
2018-12-06T10:49:58.501Z,6.60
2018-12-06T10:50:58.491Z,6.90
2018-12-06T10:51:58.480Z,7.40
2018-12-06T10:52:58.470Z,6.20
2018-12-06T10:53:58.457Z,6.20
2018-12-06T10:54:58.450Z,6.90
2018-12-06T10:55:58.443Z,6.70
2018-12-06T10:56:58.427Z,6.60
2018-12-06T10:57:58.413Z,7.10
2018-12-06T10:58:58.402Z,6.10
2018-12-06T10:59:58.401Z,5.90
2018-12-06T11:00:58.386Z,6.80
2018-12-06T11:01:58.436Z,5.80
2018-12-06T11:02:58.363Z,7.60
2018-12-06T11:03:58.356Z,6.60
2018-12-06T11:04:58.338Z,7.10
2018-12-06T11:05:58.331Z,7.20
2018-12-06T11:06:58.320Z,7.00
2018-12-06T11:07:58.309Z,8.00
2018-12-06T11:08:58.298Z,9.20
2018-12-06T11:09:58.286Z,6.40
2018-12-06T11:10:58.275Z,8.00
2018-12-06T11:11:58.266Z,7.00
2018-12-06T11:12:58.254Z,6.60
2018-12-06T11:13:58.252Z,7.30
2018-12-06T11:14:58.237Z,6.60
2018-12-06T11:15:58.221Z,7.00
2018-12-06T11:16:58.223Z,5.90
2018-12-06T11:17:58.206Z,8.20
2018-12-06T11:18:58.190Z,7.80
2018-12-06T11:19:58.180Z,6.80
2018-12-06T11:20:58.174Z,8.10
2018-12-06T11:21:58.162Z,6.50
2018-12-06T11:22:58.144Z,6.50
2018-12-06T11:23:58.137Z,6.50
2018-12-06T11:24:58.128Z,7.30
2018-12-06T11:25:58.125Z,7.50
2018-12-06T11:26:58.108Z,7.10
2018-12-06T11:27:58.094Z,7.50
2018-12-06T11:28:58.085Z,7.10
2018-12-06T11:29:58.078Z,6.40
2018-12-06T11:30:58.062Z,6.20
2018-12-06T11:31:58.050Z,7.40
2018-12-06T11:32:58.040Z,9.00
2018-12-06T11:33:58.030Z,9.10
2018-12-06T11:34:58.035Z,6.30
2018-12-06T11:35:58.017Z,6.70
2018-12-06T11:36:57.995Z,8.40
2018-12-06T11:37:57.987Z,7.50
2018-12-06T11:38:57.982Z,7.10
2018-12-06T11:39:57.968Z,8.60
2018-12-06T11:40:57.953Z,7.70
2018-12-06T11:41:57.942Z,8.80
2018-12-06T11:42:57.928Z,8.20
2018-12-06T11:43:57.919Z,8.80
2018-12-06T11:44:57.911Z,8.90
2018-12-06T11:45:57.913Z,6.30
2018-12-06T11:46:57.893Z,6.40
2018-12-06T11:47:57.881Z,8.30
2018-12-06T11:48:57.871Z,5.90
2018-12-06T11:49:57.854Z,7.70
2018-12-06T11:50:57.846Z,6.90
2018-12-06T11:51:57.840Z,7.60
2018-12-06T11:52:57.824Z,7.60
2018-12-06T11:53:57.812Z,8.70
2018-12-06T11:54:57.812Z,7.00
2018-12-06T11:55:57.801Z,7.70
2018-12-06T11:56:57.790Z,7.90
2018-12-06T11:57:57.796Z,7.50
2018-12-06T11:58:57.763Z,7.60
2018-12-06T11:59:57.751Z,7.20
2018-12-06T12:00:57.742Z,8.20
2018-12-06T12:01:57.728Z,6.70
2018-12-06T12:02:57.722Z,7.20
2018-12-06T12:03:57.712Z,7.60
2018-12-06T12:04:57.702Z,6.40
2018-12-06T12:05:58.741Z,6.70
2018-12-06T12:06:57.676Z,7.40
2018-12-06T12:07:57.670Z,7.60
2018-12-06T12:08:57.661Z,7.20
2018-12-06T12:09:57.643Z,6.10
2018-12-06T12:10:57.642Z,7.20
2018-12-06T12:11:57.622Z,6.90
2018-12-06T12:12:57.620Z,8.50
2018-12-06T12:13:57.604Z,7.00
2018-12-06T12:14:57.596Z,7.70
2018-12-06T12:15:57.579Z,5.90
2018-12-06T12:16:57.574Z,6.10
2018-12-06T12:17:57.563Z,6.90
2018-12-06T12:18:57.545Z,7.80
2018-12-06T12:19:57.536Z,7.70
2018-12-06T12:20:57.532Z,6.70
2018-12-06T12:21:57.512Z,7.50
2018-12-06T12:22:57.508Z,7.10
2018-12-06T12:23:57.504Z,8.10
2018-12-06T12:24:57.484Z,6.80
2018-12-06T12:25:57.476Z,8.70
2018-12-06T12:26:57.462Z,7.10
2018-12-06T12:27:57.453Z,8.20
2018-12-06T12:28:57.438Z,7.90
2018-12-06T12:29:57.434Z,7.30
2018-12-06T12:30:57.432Z,6.10
2018-12-06T12:31:57.413Z,7.30
2018-12-06T12:32:57.394Z,8.30
2018-12-06T12:33:57.390Z,7.60
2018-12-06T12:34:57.378Z,6.50
2018-12-06T12:35:57.362Z,8.20
2018-12-06T12:36:57.351Z,7.90
2018-12-06T12:37:57.342Z,8.60
2018-12-06T12:38:57.330Z,7.20
2018-12-06T12:39:57.319Z,8.30
2018-12-06T12:40:57.314Z,7.40
2018-12-06T12:41:57.299Z,7.70
2018-12-06T12:42:57.292Z,7.60
2018-12-06T12:43:57.277Z,7.40
2018-12-06T12:44:57.262Z,7.00
2018-12-06T12:45:57.257Z,8.10
2018-12-06T12:46:57.244Z,6.90
2018-12-06T12:47:57.240Z,7.90
2018-12-06T12:48:57.229Z,6.40
2018-12-06T12:49:57.214Z,8.40
2018-12-06T12:50:57.200Z,7.40
2018-12-06T12:51:57.190Z,8.30
2018-12-06T12:52:57.180Z,9.20
2018-12-06T12:53:57.174Z,7.30
2018-12-06T12:54:57.164Z,10.00
2018-12-06T12:55:57.150Z,6.90
2018-12-06T12:56:57.135Z,6.70
2018-12-06T12:57:57.132Z,7.70
2018-12-06T12:58:57.117Z,7.60
2018-12-06T12:59:57.106Z,7.40
2018-12-06T13:00:57.092Z,7.30
2018-12-06T13:01:57.082Z,8.10
2018-12-06T13:02:57.076Z,8.20
2018-12-06T13:03:57.059Z,7.40
2018-12-06T13:04:57.048Z,7.70
2018-12-06T13:05:57.088Z,7.50
2018-12-06T13:06:57.026Z,8.10
2018-12-06T13:07:57.021Z,9.00
2018-12-06T13:08:57.002Z,7.90